Time;durP1;ratioP1;P1;durP2;ratioP2;P2;SDS_P1;SDS_P2;PMS_P1;PMS_P2;Temp;Humidity;BMP_temperature;BMP_pressure;BME280_temperature;BME280_humidity;BME280_pressure;Samples;Min_cycle;Max_cycle;Signal;HPM_P1;HPM_P2
2022/04/25 00:02:21;;;;;;;6.20;5.20;;;;;;;;;;5084326;28;20451;-72
2022/04/25 00:04:49;;;;;;;7.03;6.27;;;;;;;;;;5082379;28;20536;-71
2022/04/25 00:07:17;;;;;;;6.03;4.30;;;;;;;;;;5089394;28;20564;-71
2022/04/25 00:09:45;;;;;;;7.10;5.00;;;;;;;;;;5091862;28;20448;-71
2022/04/25 00:12:12;;;;;;;6.83;4.50;;;;;;;;;;5077610;28;20991;-70
2022/04/25 00:14:39;;;;;;;5.27;4.77;;;;;;;;;;5090432;28;20437;-71
2022/04/25 00:17:06;;;;;;;4.80;4.00;;;;;;;;;;5077075;28;20445;-72
2022/04/25 00:19:35;;;;;;;10.30;5.60;;;;;;;;;;5088329;28;20444;-72
2022/04/25 00:22:02;;;;;;;7.03;4.43;;;;;;;;;;5091196;28;20444;-72
2022/04/25 00:24:31;;;;;;;6.53;4.20;;;;;;;;;;5090808;28;20453;-72
2022/04/25 00:26:58;;;;;;;5.87;4.77;;;;;;;;;;5078702;28;20984;-71
2022/04/25 00:29:25;;;;;;;5.60;4.73;;;;;;;;;;5083264;28;20445;-70
2022/04/25 00:31:53;;;;;;;7.00;4.33;;;;;;;;;;5084960;28;20452;-71
2022/04/25 00:34:20;;;;;;;9.80;5.17;;;;;;;;;;5083630;28;20531;-71
2022/04/25 00:36:47;;;;;;;6.10;3.87;;;;;;;;;;5090609;28;21259;-70
2022/04/25 00:39:14;;;;;;;6.90;4.40;;;;;;;;;;5090385;28;20923;-71
2022/04/25 00:41:43;;;;;;;6.73;5.20;;;;;;;;;;5091267;28;20529;-71
2022/04/25 00:44:10;;;;;;;7.13;4.03;;;;;;;;;;5090022;28;20549;-70
2022/04/25 00:46:38;;;;;;;5.50;4.23;;;;;;;;;;5079467;28;20454;-71
2022/04/25 00:49:05;;;;;;;5.30;3.90;;;;;;;;;;5080769;28;20483;-70
2022/04/25 00:51:32;;;;;;;5.83;3.63;;;;;;;;;;5081187;28;20445;-70
2022/04/25 00:54:00;;;;;;;5.13;3.87;;;;;;;;;;5090737;28;20468;-71
2022/04/25 00:56:27;;;;;;;9.13;5.33;;;;;;;;;;5081086;28;20449;-70
2022/04/25 00:58:57;;;;;;;7.03;5.70;;;;;;;;;;5086062;28;20464;-71
2022/04/25 01:01:26;;;;;;;6.67;6.07;;;;;;;;;;5084660;28;20437;-71
2022/04/25 01:03:53;;;;;;;7.93;5.37;;;;;;;;;;5091087;28;20955;-72
2022/04/25 01:06:20;;;;;;;8.27;6.10;;;;;;;;;;5081442;28;20477;-72
2022/04/25 01:08:48;;;;;;;8.30;6.40;;;;;;;;;;5087224;28;20506;-71
2022/04/25 01:11:15;;;;;;;6.90;5.10;;;;;;;;;;5089932;28;20528;-70
2022/04/25 01:13:43;;;;;;;11.20;6.90;;;;;;;;;;5090175;28;20444;-71
2022/04/25 01:16:12;;;;;;;8.40;5.80;;;;;;;;;;5089428;28;20446;-69
2022/04/25 01:18:39;;;;;;;7.43;6.27;;;;;;;;;;5090804;28;20444;-71
2022/04/25 01:21:08;;;;;;;6.97;6.00;;;;;;;;;;5090371;28;20497;-69
2022/04/25 01:29:08;;;;;;;7.50;6.10;;;;;;;;;;5089582;28;20471;-70
2022/04/25 01:31:35;;;;;;;5.33;4.83;;;;;;;;;;5090183;28;20444;-71
2022/04/25 01:34:03;;;;;;;8.70;5.80;;;;;;;;;;5090040;28;20502;-70
2022/04/25 01:36:30;;;;;;;9.37;5.80;;;;;;;;;;5089039;28;20447;-70
2022/04/25 01:38:59;;;;;;;8.30;5.00;;;;;;;;;;5077616;28;20443;-70
2022/04/25 01:41:27;;;;;;;13.37;7.90;;;;;;;;;;5076196;28;21074;-71
2022/04/25 01:43:54;;;;;;;9.17;6.97;;;;;;;;;;5077965;28;20532;-72
2022/04/25 01:46:21;;;;;;;10.20;6.60;;;;;;;;;;5077050;28;20447;-72
2022/04/25 01:48:48;;;;;;;9.37;6.70;;;;;;;;;;5080062;28;20564;-71
2022/04/25 01:51:15;;;;;;;7.80;6.50;;;;;;;;;;5089295;28;20444;-70
2022/04/25 01:53:43;;;;;;;8.33;5.93;;;;;;;;;;5081792;28;20527;-70
2022/04/25 01:56:11;;;;;;;8.50;5.37;;;;;;;;;;5088964;28;20479;-70
2022/04/25 01:58:38;;;;;;;11.70;7.80;;;;;;;;;;5089672;28;20564;-72
2022/04/25 02:01:07;;;;;;;8.07;5.87;;;;;;;;;;5079039;28;20445;-70
2022/04/25 02:03:35;;;;;;;5.50;4.57;;;;;;;;;;5090022;28;20455;-71
2022/04/25 02:06:02;;;;;;;8.93;6.90;;;;;;;;;;5089785;28;20439;-71
2022/04/25 02:08:29;;;;;;;8.07;6.07;;;;;;;;;;5088207;28;20479;-71
2022/04/25 02:13:42;;;;;;;8.60;6.20;;;;;;;;;;5090503;28;20915;-73
2022/04/25 02:16:11;;;;;;;9.63;6.37;;;;;;;;;;5077816;28;20452;-70
2022/04/25 02:18:39;;;;;;;9.93;5.90;;;;;;;;;;5085977;28;20471;-71
2022/04/25 02:21:06;;;;;;;8.13;6.07;;;;;;;;;;5083117;28;20459;-71
2022/04/25 02:23:34;;;;;;;9.23;5.33;;;;;;;;;;5076719;28;20483;-71
2022/04/25 02:26:01;;;;;;;14.17;7.07;;;;;;;;;;5082676;28;20437;-72
2022/04/25 02:28:28;;;;;;;9.47;5.70;;;;;;;;;;5078747;28;20535;-71
2022/04/25 02:30:58;;;;;;;8.23;6.60;;;;;;;;;;5090181;28;20444;-70
2022/04/25 02:33:25;;;;;;;14.07;8.30;;;;;;;;;;5075172;28;20441;-71
2022/04/25 02:35:52;;;;;;;7.80;6.20;;;;;;;;;;5087275;28;20466;-71
2022/04/25 02:38:20;;;;;;;10.10;7.37;;;;;;;;;;5081888;28;20568;-71
2022/04/25 02:41:04;;;;;;;10.70;7.80;;;;;;;;;;5087280;28;20436;-71
2022/04/25 02:43:32;;;;;;;9.10;6.10;;;;;;;;;;5082455;28;20531;-71
2022/04/25 02:46:00;;;;;;;9.60;6.90;;;;;;;;;;5092963;28;20455;-71
2022/04/25 02:48:28;;;;;;;9.47;6.60;;;;;;;;;;5092903;28;20476;-71
2022/04/25 02:50:55;;;;;;;11.43;7.00;;;;;;;;;;5093559;28;20443;-71
2022/04/25 02:53:24;;;;;;;8.47;7.57;;;;;;;;;;5092690;28;20450;-70
2022/04/25 02:55:52;;;;;;;9.87;6.90;;;;;;;;;;5092808;28;20441;-69
2022/04/25 02:58:19;;;;;;;8.70;5.90;;;;;;;;;;5092714;28;20809;-71
2022/04/25 03:00:47;;;;;;;6.23;5.40;;;;;;;;;;5093483;28;20448;-70
2022/04/25 03:03:16;;;;;;;7.37;6.47;;;;;;;;;;5092785;28;20451;-70
2022/04/25 03:05:43;;;;;;;11.33;7.70;;;;;;;;;;5093135;28;20446;-71
2022/04/25 03:08:11;;;;;;;7.67;5.83;;;;;;;;;;5092849;28;20501;-70
2022/04/25 03:10:38;;;;;;;9.60;6.20;;;;;;;;;;5093197;28;20442;-71
2022/04/25 03:13:07;;;;;;;9.70;6.10;;;;;;;;;;5093199;28;20449;-70
2022/04/25 03:15:37;;;;;;;8.20;5.50;;;;;;;;;;5075837;28;20447;-71
2022/04/25 03:18:04;;;;;;;8.27;6.60;;;;;;;;;;5085393;28;20435;-71
2022/04/25 03:20:33;;;;;;;8.83;7.37;;;;;;;;;;5092831;28;20599;-70
2022/04/25 03:23:00;;;;;;;7.93;6.63;;;;;;;;;;5093296;28;20443;-70
2022/04/25 03:25:28;;;;;;;9.70;6.13;;;;;;;;;;5078747;28;20500;-70
2022/04/25 03:27:55;;;;;;;9.67;6.60;;;;;;;;;;5093005;28;20478;-70
2022/04/25 03:30:23;;;;;;;8.40;6.63;;;;;;;;;;5092373;28;20449;-71
2022/04/25 03:32:50;;;;;;;8.67;5.30;;;;;;;;;;5092415;28;20449;-71
2022/04/25 03:35:18;;;;;;;9.83;6.43;;;;;;;;;;5090934;28;20454;-70
2022/04/25 03:37:47;;;;;;;7.67;5.20;;;;;;;;;;5092590;28;20441;-69
2022/04/25 03:40:15;;;;;;;7.03;5.13;;;;;;;;;;5091594;28;20540;-70
2022/04/25 03:42:44;;;;;;;10.40;6.07;;;;;;;;;;5078876;28;20445;-70
2022/04/25 03:45:12;;;;;;;12.73;7.30;;;;;;;;;;5091000;28;20441;-69
2022/04/25 03:47:40;;;;;;;11.77;8.03;;;;;;;;;;5091890;28;20485;-71
2022/04/25 03:50:08;;;;;;;8.70;6.00;;;;;;;;;;5082108;28;20531;-69
2022/04/25 03:52:35;;;;;;;7.73;5.57;;;;;;;;;;5089992;28;20472;-69
2022/04/25 03:57:53;;;;;;;8.30;6.37;;;;;;;;;;5061037;28;20767;-71
2022/04/25 04:00:21;;;;;;;11.27;8.30;;;;;;;;;;5076207;28;20516;-69
2022/04/25 04:02:48;;;;;;;7.43;6.23;;;;;;;;;;5086310;28;20535;-71
2022/04/25 04:05:15;;;;;;;9.53;6.10;;;;;;;;;;5082090;28;20528;-70
2022/04/25 04:07:43;;;;;;;15.83;9.83;;;;;;;;;;5092254;28;20478;-70
2022/04/25 04:10:11;;;;;;;9.63;6.70;;;;;;;;;;5090899;28;20489;-70
2022/04/25 04:12:39;;;;;;;8.33;7.40;;;;;;;;;;5084625;28;20479;-71
2022/04/25 04:15:07;;;;;;;8.03;7.00;;;;;;;;;;5084851;28;20444;-71
2022/04/25 04:17:34;;;;;;;10.83;7.13;;;;;;;;;;5080846;28;20454;-71
2022/04/25 04:20:02;;;;;;;10.30;6.83;;;;;;;;;;5079107;28;20437;-71
2022/04/25 04:22:31;;;;;;;8.03;6.00;;;;;;;;;;5087434;28;20527;-71
2022/04/25 04:25:01;;;;;;;8.70;6.00;;;;;;;;;;5086009;28;20456;-71
2022/04/25 04:27:31;;;;;;;9.70;5.53;;;;;;;;;;5088038;28;20447;-71
2022/04/25 04:29:58;;;;;;;15.27;8.43;;;;;;;;;;5087939;28;20469;-69
2022/04/25 04:32:30;;;;;;;10.10;8.50;;;;;;;;;;5081188;28;21085;-72
2022/04/25 04:34:57;;;;;;;10.40;7.60;;;;;;;;;;5091574;28;20467;-72
2022/04/25 04:37:25;;;;;;;8.13;5.43;;;;;;;;;;5091187;28;20443;-73
2022/04/25 04:40:27;;;;;;;8.70;6.10;;;;;;;;;;5091380;28;20444;-70
2022/04/25 04:42:41;;;;;;;12.30;6.97;;;;;;;;;;5084152;28;20441;-69
2022/04/25 04:45:11;;;;;;;11.60;7.17;;;;;;;;;;5082509;28;20448;-68
2022/04/25 04:47:38;;;;;;;11.70;7.33;;;;;;;;;;5086197;28;20437;-69
2022/04/25 04:50:06;;;;;;;8.63;6.80;;;;;;;;;;5091556;28;20470;-69
2022/04/25 04:52:33;;;;;;;14.63;8.83;;;;;;;;;;5090576;28;20464;-72
2022/04/25 04:55:01;;;;;;;9.33;6.60;;;;;;;;;;5091215;28;20526;-72
2022/04/25 04:57:28;;;;;;;7.30;5.63;;;;;;;;;;5076921;28;20549;-72
2022/04/25 04:59:57;;;;;;;10.70;6.93;;;;;;;;;;5090868;28;20549;-71
2022/04/25 05:02:25;;;;;;;9.97;6.20;;;;;;;;;;5090279;28;20506;-70
2022/04/25 05:04:53;;;;;;;9.00;8.13;;;;;;;;;;5090996;28;20531;-70
2022/04/25 05:07:20;;;;;;;10.10;6.80;;;;;;;;;;5089910;28;20942;-70
2022/04/25 05:09:48;;;;;;;9.57;6.37;;;;;;;;;;5089909;28;20588;-70
2022/04/25 05:12:15;;;;;;;10.07;6.80;;;;;;;;;;5090085;28;20442;-71
2022/04/25 05:14:42;;;;;;;11.37;6.23;;;;;;;;;;5090929;28;20538;-71
2022/04/25 05:17:11;;;;;;;13.63;7.43;;;;;;;;;;5089879;28;20530;-71
2022/04/25 05:19:38;;;;;;;6.83;5.50;;;;;;;;;;5090721;28;20446;-71
2022/04/25 05:22:05;;;;;;;7.37;5.90;;;;;;;;;;5090489;28;20450;-70
2022/04/25 05:24:32;;;;;;;8.73;5.87;;;;;;;;;;5090675;28;20441;-70
2022/04/25 05:27:00;;;;;;;11.60;7.30;;;;;;;;;;5090743;28;20455;-70
2022/04/25 05:29:27;;;;;;;10.23;7.00;;;;;;;;;;5089483;28;20581;-69
2022/04/25 05:31:55;;;;;;;9.20;7.37;;;;;;;;;;5090399;28;20468;-70
2022/04/25 05:34:24;;;;;;;9.20;6.83;;;;;;;;;;5090077;28;20443;-70
2022/04/25 05:36:51;;;;;;;9.30;6.97;;;;;;;;;;5090612;28;20462;-69
2022/04/25 05:39:18;;;;;;;10.30;6.00;;;;;;;;;;5089591;28;20475;-70
2022/04/25 05:41:46;;;;;;;10.00;5.60;;;;;;;;;;5090470;28;20444;-71
2022/04/25 05:44:14;;;;;;;12.57;7.60;;;;;;;;;;5090297;28;20467;-69
2022/04/25 05:46:41;;;;;;;8.30;6.40;;;;;;;;;;5090645;28;20528;-69
2022/04/25 05:52:00;;;;;;;10.33;5.83;;;;;;;;;;5080081;28;20424;-69
2022/04/25 05:54:27;;;;;;;11.30;7.00;;;;;;;;;;5088303;28;20433;-70
2022/04/25 05:56:55;;;;;;;8.80;5.90;;;;;;;;;;5090927;28;20498;-69
2022/04/25 05:59:22;;;;;;;7.87;5.43;;;;;;;;;;5089049;28;20824;-69
2022/04/25 06:01:49;;;;;;;9.27;7.23;;;;;;;;;;5094395;28;20540;-69
2022/04/25 06:04:17;;;;;;;9.30;6.27;;;;;;;;;;5093892;28;20440;-70
2022/04/25 06:06:44;;;;;;;9.07;6.20;;;;;;;;;;5094741;28;20488;-70
2022/04/25 06:09:12;;;;;;;10.83;6.97;;;;;;;;;;5093061;28;20573;-71
2022/04/25 06:11:39;;;;;;;10.90;7.50;;;;;;;;;;5094476;28;20521;-70
2022/04/25 06:14:07;;;;;;;9.87;6.60;;;;;;;;;;5080526;28;20538;-71
2022/04/25 06:16:34;;;;;;;6.77;5.20;;;;;;;;;;5094317;28;20443;-70
2022/04/25 06:19:02;;;;;;;9.37;6.63;;;;;;;;;;5093822;28;20965;-70
2022/04/25 06:21:29;;;;;;;11.43;6.30;;;;;;;;;;5092656;28;21084;-69
2022/04/25 06:23:59;;;;;;;5.97;4.13;;;;;;;;;;5082348;28;20451;-69
2022/04/25 06:26:30;;;;;;;7.40;5.80;;;;;;;;;;5093501;28;20460;-70
2022/04/25 06:28:57;;;;;;;7.17;6.23;;;;;;;;;;5094115;28;20476;-69
2022/04/25 06:31:24;;;;;;;11.20;8.23;;;;;;;;;;5093531;28;20530;-70
2022/04/25 06:33:51;;;;;;;7.33;6.03;;;;;;;;;;5093795;28;20521;-69
2022/04/25 06:36:18;;;;;;;9.90;6.10;;;;;;;;;;5093484;28;20910;-70
2022/04/25 06:38:46;;;;;;;8.40;6.53;;;;;;;;;;5093406;28;20446;-69
2022/04/25 06:41:14;;;;;;;6.13;5.00;;;;;;;;;;5092905;28;20439;-70
2022/04/25 06:43:42;;;;;;;9.20;6.07;;;;;;;;;;5094132;28;20466;-69
2022/04/25 06:46:10;;;;;;;10.13;6.47;;;;;;;;;;5076810;28;20441;-71
2022/04/25 06:48:37;;;;;;;10.73;6.87;;;;;;;;;;5083458;28;20436;-71
2022/04/25 06:51:04;;;;;;;8.63;6.10;;;;;;;;;;5093769;28;20502;-70
2022/04/25 06:53:31;;;;;;;11.30;7.27;;;;;;;;;;5093087;28;20543;-69
2022/04/25 06:55:58;;;;;;;9.97;6.20;;;;;;;;;;5093367;28;20439;-69
2022/04/25 06:58:27;;;;;;;8.43;5.90;;;;;;;;;;5092701;28;20468;-71
2022/04/25 07:00:55;;;;;;;9.30;7.07;;;;;;;;;;5093470;28;20455;-69
2022/04/25 07:03:24;;;;;;;7.40;5.37;;;;;;;;;;5092527;28;20531;-69
2022/04/25 07:05:54;;;;;;;7.33;5.93;;;;;;;;;;5093234;28;20455;-69
2022/04/25 07:08:21;;;;;;;5.87;5.20;;;;;;;;;;5092919;28;20557;-69
2022/04/25 07:10:48;;;;;;;8.00;5.20;;;;;;;;;;5092110;28;20546;-70
2022/04/25 07:13:17;;;;;;;10.00;6.30;;;;;;;;;;5092628;28;20441;-69
2022/04/25 07:15:45;;;;;;;11.53;7.70;;;;;;;;;;5079955;28;20445;-69
2022/04/25 07:18:15;;;;;;;6.40;4.90;;;;;;;;;;5092524;28;20441;-69
2022/04/25 07:20:42;;;;;;;8.47;6.60;;;;;;;;;;5092973;28;20452;-70
2022/04/25 07:28:52;;;;;;;9.00;5.63;;;;;;;;;;5015386;28;20436;-70
2022/04/25 07:31:20;;;;;;;7.60;5.80;;;;;;;;;;5087433;28;20439;-70
2022/04/25 07:33:48;;;;;;;7.10;5.20;;;;;;;;;;5093023;28;20508;-70
2022/04/25 07:36:17;;;;;;;8.30;5.47;;;;;;;;;;5092309;28;20444;-70
2022/04/25 07:38:45;;;;;;;7.83;5.50;;;;;;;;;;5092849;28;20444;-70
2022/04/25 07:41:13;;;;;;;6.63;5.67;;;;;;;;;;5091993;28;20445;-71
2022/04/25 07:43:41;;;;;;;7.13;5.27;;;;;;;;;;5092885;28;20922;-70
2022/04/25 07:46:09;;;;;;;7.13;5.83;;;;;;;;;;5076263;28;20773;-71
2022/04/25 07:48:36;;;;;;;5.10;4.10;;;;;;;;;;5081620;28;20910;-71
2022/04/25 07:51:04;;;;;;;5.07;4.47;;;;;;;;;;5092454;28;20487;-70
2022/04/25 07:53:32;;;;;;;5.63;4.63;;;;;;;;;;5091607;28;20473;-70
2022/04/25 07:55:59;;;;;;;5.60;4.90;;;;;;;;;;5092755;28;20443;-70
2022/04/25 07:58:26;;;;;;;6.70;5.00;;;;;;;;;;5091609;28;20471;-69
2022/04/25 08:00:55;;;;;;;5.27;4.30;;;;;;;;;;5092428;28;20449;-69
2022/04/25 08:03:22;;;;;;;7.10;4.70;;;;;;;;;;5091958;28;20752;-70
2022/04/25 08:05:49;;;;;;;7.87;5.33;;;;;;;;;;5092504;28;20440;-70
2022/04/25 08:08:18;;;;;;;6.50;5.23;;;;;;;;;;5092288;28;20530;-70
2022/04/25 08:10:45;;;;;;;5.50;4.07;;;;;;;;;;5091643;28;20568;-70
2022/04/25 08:18:41;;;;;;;4.87;4.47;;;13.50;1.00;;;;;;5091739;28;20428;-69
2022/04/25 08:21:08;;;;;;;5.00;4.33;;;13.70;1.00;;;;;;5091664;28;20489;-71
2022/04/25 08:23:38;;;;;;;7.37;5.20;;;14.10;86.50;;;;;;5090955;28;20433;-69
2022/04/25 08:26:05;;;;;;;5.10;4.20;;;13.80;99.90;;;;;;5092591;28;20435;-69
2022/04/25 08:28:32;;;;;;;5.90;5.30;;;13.50;99.90;;;;;;5091225;28;20538;-71
2022/04/25 08:30:59;;;;;;;5.83;4.83;;;13.30;1.00;;;;;;5091920;28;20465;-70
2022/04/25 08:33:26;;;;;;;7.00;5.93;;;13.60;1.00;;;;;;5090935;28;20433;-70
2022/04/25 08:35:53;;;;;;;5.30;4.80;;;13.70;99.90;;;;;;5092087;28;20472;-70
2022/04/25 08:38:20;;;;;;;8.00;5.17;;;13.60;99.90;;;;;;5090714;28;20473;-70
2022/04/25 08:40:50;;;;;;;7.23;5.27;;;13.50;99.90;;;;;;5091634;28;20448;-71
2022/04/25 08:43:18;;;;;;;5.70;4.93;;;13.40;99.90;;;;;;5091259;28;20437;-70
2022/04/25 08:45:46;;;;;;;5.90;4.73;;;13.30;99.90;;;;;;5091553;28;20440;-70
2022/04/25 08:48:14;;;;;;;8.10;5.50;;;13.40;99.90;;;;;;5090519;28;20529;-70
2022/04/25 08:50:42;;;;;;;6.40;5.80;;;13.60;1.00;;;;;;5090930;28;20569;-70
2022/04/25 08:53:11;;;;;;;5.53;4.50;;;13.80;1.00;;;;;;5091160;28;20931;-71
2022/04/25 08:55:39;;;;;;;4.53;4.10;;;14.50;1.00;;;;;;5091020;28;20928;-69
2022/04/25 08:58:09;;;;;;;5.83;5.03;;;14.50;55.10;;;;;;5091367;28;20482;-69
2022/04/25 09:00:37;;;;;;;6.30;4.80;;;14.40;99.90;;;;;;5091373;28;20438;-70
2022/04/25 09:03:04;;;;;;;6.33;4.80;;;14.30;20.10;;;;;;5091196;28;20444;-69
2022/04/25 09:05:31;;;;;;;8.27;5.13;;;14.30;52.40;;;;;;5090144;28;20552;-69
2022/04/25 09:07:58;;;;;;;6.50;5.37;;;14.40;37.30;;;;;;5091094;28;20443;-70
2022/04/25 09:10:26;;;;;;;5.80;5.20;;;14.30;6.50;;;;;;5089843;28;20487;-71
2022/04/25 09:12:54;;;;;;;11.50;5.93;;;14.50;1.00;;;;;;5091122;28;20498;-70
2022/04/25 09:15:24;;;;;;;6.93;5.93;;;14.20;1.00;;;;;;5090526;28;20482;-70
2022/04/25 09:17:53;;;;;;;6.50;4.77;;;14.10;25.40;;;;;;5091006;28;20444;-71
2022/04/25 09:20:21;;;;;;;6.87;5.90;;;14.00;99.90;;;;;;5090061;28;20481;-70
2022/04/25 09:22:48;;;;;;;8.77;4.83;;;13.80;99.90;;;;;;5090702;28;20440;-70
2022/04/25 09:25:17;;;;;;;8.10;5.80;;;13.80;99.90;;;;;;5090229;28;20845;-71
2022/04/25 09:27:47;;;;;;;7.32;5.30;;;14.10;99.90;;;;;;5091122;28;20846;-69
2022/04/25 09:30:19;;;;;;;6.27;5.00;;;14.10;1.00;;;;;;5089545;28;20224;-69
2022/04/25 09:32:51;;;;;;;7.77;5.10;;;13.90;1.00;;;;;;5091171;28;20439;-69
2022/04/25 09:35:29;;;;;;;7.53;5.50;;;14.00;14.00;;;;;;5077288;28;20440;-69
2022/04/25 09:37:58;;;;;;;8.77;4.83;;;14.30;1.00;;;;;;5091123;28;20477;-69
2022/04/25 09:40:28;;;;;;;7.03;5.13;;;14.30;1.00;;;;;;5090221;28;20850;-69
2022/04/25 09:43:11;;;;;;;5.80;4.80;;;14.50;1.00;;;;;;5090832;28;20455;-69
2022/04/25 09:45:42;;;;;;;5.30;4.80;;;14.50;1.00;;;;;;5091338;28;20454;-69
2022/04/25 09:48:15;;;;;;;7.17;4.73;;;14.30;1.00;;;;;;5090629;28;20544;-71
2022/04/25 09:50:44;;;;;;;7.23;5.47;;;14.30;1.00;;;;;;5090928;28;20467;-69
2022/04/25 09:53:11;;;;;;;6.90;5.63;;;14.20;1.00;;;;;;5090376;28;20468;-69
2022/04/25 09:55:41;;;;;;;8.90;5.63;;;14.30;1.00;;;;;;5090555;28;20526;-70
2022/04/25 09:58:19;;;;;;;7.87;5.77;;;14.40;1.00;;;;;;5090272;28;20472;-69
2022/04/25 10:00:46;;;;;;;7.27;5.13;;;14.60;1.00;;;;;;5090344;28;20494;-70
2022/04/25 10:03:16;;;;;;;8.60;6.40;;;14.60;1.00;;;;;;5089846;28;20528;-69
2022/04/25 10:05:45;;;;;;;5.60;5.10;;;14.50;1.00;;;;;;5090750;28;20448;-70
2022/04/25 10:08:14;;;;;;;6.40;5.67;;;14.50;1.00;;;;;;5089758;28;20501;-70
2022/04/25 10:10:46;;;;;;;5.97;4.80;;;14.60;1.00;;;;;;5090351;28;20577;-69
2022/04/25 10:13:13;;;;;;;5.90;4.27;;;14.90;1.00;;;;;;5089617;28;20474;-70
2022/04/25 10:15:40;;;;;;;8.27;6.70;;;14.90;1.00;;;;;;5090618;28;20784;-70
2022/04/25 10:18:09;;;;;;;5.47;4.60;;;14.50;1.00;;;;;;5090625;28;20818;-70
2022/04/25 10:20:38;;;;;;;6.50;5.47;;;14.90;1.00;;;;;;5090790;28;20444;-70
2022/04/25 10:23:06;;;;;;;7.03;4.97;;;14.70;1.00;;;;;;5090712;28;20444;-70
2022/04/25 10:25:36;;;;;;;6.87;5.37;;;14.90;1.00;;;;;;5089671;28;20448;-69
2022/04/25 10:28:06;;;;;;;6.27;4.73;;;14.80;1.00;;;;;;5090408;28;20790;-69
2022/04/25 10:30:35;;;;;;;6.60;5.73;;;14.70;1.00;;;;;;5090707;28;20468;-70
2022/04/25 10:33:16;;;;;;;5.87;5.27;;;15.10;1.00;;;;;;5089896;28;20535;-69
2022/04/25 10:35:46;;;;;;;5.53;4.80;;;15.30;1.00;;;;;;5090575;28;20453;-69
2022/04/25 10:38:51;;;;;;;5.43;4.73;;;15.10;1.00;;;;;;5089461;28;20524;-69
2022/04/25 10:44:47;;;;;;;5.77;5.17;;;15.10;1.00;;;;;;5089557;28;20412;-70
2022/04/25 10:47:16;;;;;;;7.47;5.20;;;15.30;1.00;;;;;;5087397;28;20444;-69
2022/04/25 10:49:46;;;;;;;6.87;5.50;;;15.20;1.00;;;;;;5093177;28;20444;-71
2022/04/25 10:52:55;;;;;;;8.10;5.53;;;15.30;1.00;;;;;;5093313;28;20493;-71
2022/04/25 10:55:45;;;;;;;8.47;5.67;;;15.50;1.00;;;;;;5092963;28;20772;-69
2022/04/25 10:58:13;;;;;;;4.70;4.10;;;16.10;99.90;;;;;;5072115;28;20488;-69
2022/04/25 11:00:54;;;;;;;7.00;5.13;;;15.80;99.90;;;;;;5090525;28;20437;-69
2022/04/25 11:03:23;;;;;;;5.57;4.53;;;15.90;99.90;;;;;;5093055;28;20460;-68
2022/04/25 11:05:52;;;;;;;6.87;5.07;;;15.70;99.90;;;;;;5093936;28;20437;-70
2022/04/25 11:08:37;;;;;;;7.30;5.73;;;15.70;99.90;;;;;;5092833;28;20902;-70
2022/04/25 11:11:09;;;;;;;6.13;4.90;;;15.50;99.90;;;;;;5082233;28;20468;-69
2022/04/25 11:14:01;;;;;;;6.17;5.10;;;15.70;99.90;;;;;;5093807;28;20845;-70
2022/04/25 11:16:29;;;;;;;6.30;5.30;;;15.70;99.90;;;;;;5092543;28;20444;-70
2022/04/25 11:19:16;;;;;;;6.67;4.97;;;15.90;99.90;;;;;;5093287;28;20448;-70
2022/04/25 11:21:47;;;;;;;7.23;5.90;;;16.30;99.90;;;;;;5093053;28;20829;-70
2022/04/25 11:24:35;;;;;;;8.30;5.97;;;16.10;99.90;;;;;;5092440;28;20433;-71
2022/04/25 11:27:03;;;;;;;6.77;5.43;;;16.10;99.90;;;;;;5093089;28;20529;-70
2022/04/25 11:29:30;;;;;;;11.27;6.07;;;16.10;99.90;;;;;;5092009;28;20468;-70
2022/04/25 11:32:27;;;;;;;6.93;5.77;;;16.70;99.90;;;;;;5079846;28;20480;-70
2022/04/25 11:34:59;;;;;;;8.53;5.53;;;;;;;;;;5092981;28;20854;-70
2022/04/25 11:37:28;;;;;;;5.97;4.60;;;15.70;99.90;;;;;;5092509;28;20460;-70
2022/04/25 11:40:01;;;;;;;7.17;4.50;;;15.70;99.90;;;;;;5092646;28;20520;-70
2022/04/25 11:42:29;;;;;;;6.03;5.00;;;;;;;;;;5092000;28;20506;-70
2022/04/25 11:44:57;;;;;;;6.30;5.70;;;;;;;;;;5079639;28;20477;-70
2022/04/25 11:47:24;;;;;;;6.00;4.60;;;;;;;;;;5092057;28;20826;-70
2022/04/25 11:49:58;;;;;;;5.50;4.70;;;;;;;;;;5092400;28;20472;-69
2022/04/25 11:52:26;;;;;;;6.70;4.97;;;15.70;99.90;;;;;;5091937;28;20502;-70
2022/04/25 11:54:54;;;;;;;8.37;5.57;;;14.50;1.00;;;;;;5092811;28;20447;-70
2022/04/25 11:57:23;;;;;;;5.53;4.60;;;;;;;;;;5078220;28;20861;-70
2022/04/25 11:59:50;;;;;;;8.97;5.53;;;;;;;;;;5092061;28;20469;-69
2022/04/25 12:02:17;;;;;;;5.77;4.50;;;;;;;;;;5091426;28;21284;-70
2022/04/25 12:04:46;;;;;;;6.20;5.30;;;;;;;;;;5092649;28;20441;-69
2022/04/25 12:07:13;;;;;;;8.23;5.80;;;;;;;;;;5091545;28;20865;-70
2022/04/25 12:15:38;;;;;;;7.27;5.53;;;;;;;;;;5091477;28;20421;-70
2022/04/25 12:18:15;;;;;;;8.17;5.23;;;;;;;;;;5091914;28;20433;-69
2022/04/25 12:20:43;;;;;;;5.90;5.20;;;;;;;;;;5080295;28;20452;-70
2022/04/25 12:23:11;;;;;;;9.00;5.47;;;;;;;;;;5092316;28;20444;-70
2022/04/25 12:25:42;;;;;;;7.60;5.30;;;;;;;;;;5092476;28;20787;-71
2022/04/25 12:28:17;;;;;;;7.20;5.03;;;;;;;;;;5092362;28;20448;-70
2022/04/25 12:30:45;;;;;;;6.73;5.10;;;;;;;;;;5092315;28;20465;-70
2022/04/25 12:33:14;;;;;;;5.40;4.87;;;14.30;1.00;;;;;;5091579;28;20437;-72
2022/04/25 12:35:42;;;;;;;7.07;4.83;;;14.50;99.90;;;;;;5091779;28;21004;-70
2022/04/25 12:38:10;;;;;;;7.30;4.93;;;14.70;99.90;;;;;;5091646;28;20462;-70
2022/04/25 12:40:56;;;;;;;9.43;5.90;;;14.70;1.00;;;;;;5091559;28;20437;-69
2022/04/25 12:43:38;;;;;;;7.27;5.70;;;14.80;99.90;;;;;;5090988;28;20531;-70
2022/04/25 12:46:06;;;;;;;6.43;4.57;;;15.00;99.90;;;;;;5091892;28;20441;-70
2022/04/25 12:49:02;;;;;;;5.60;3.87;;;14.90;1.00;;;;;;5090640;28;20771;-70
2022/04/25 12:51:31;;;;;;;5.70;4.90;;;14.80;99.90;;;;;;5090642;28;20471;-68
2022/04/25 12:53:58;;;;;;;7.10;5.40;;;14.80;1.00;;;;;;5091311;28;20530;-69
2022/04/25 12:56:25;;;;;;;6.57;5.73;;;14.70;99.90;;;;;;5091022;28;20788;-71
2022/04/25 12:58:54;;;;;;;3.93;3.50;;;14.70;99.90;;;;;;5091150;28;20468;-71
2022/04/25 13:01:36;;;;;;;6.87;5.10;;;15.00;1.00;;;;;;5090425;28;20454;-70
2022/04/25 13:04:19;;;;;;;6.90;4.40;;;;;;;;;;5091398;28;20444;-70
2022/04/25 13:06:46;;;;;;;5.65;3.92;;;;;;;;;;5090739;28;20460;-70
2022/04/25 13:09:15;;;;;;;8.03;5.67;;;;;;;;;;5089606;28;20289;-71
2022/04/25 13:11:42;;;;;;;5.90;4.50;;;;;;;;;;5090751;28;20533;-70
2022/04/25 13:14:11;;;;;;;6.30;3.83;;;;;;;;;;5077692;28;20441;-70
2022/04/25 13:16:38;;;;;;;4.77;4.00;;;;;;;;;;5091243;28;20816;-70
2022/04/25 13:19:05;;;;;;;4.50;3.70;;;;;;;;;;5090918;28;20468;-70
2022/04/25 13:21:34;;;;;;;4.60;3.90;;;;;;;;;;5089831;28;20460;-69
2022/04/25 13:24:02;;;;;;;5.70;4.40;;;;;;;;;;5090865;28;20922;-70
2022/04/25 13:26:30;;;;;;;4.80;3.53;;;;;;;;;;5090086;28;20465;-70
2022/04/25 13:28:57;;;;;;;5.33;3.53;;;;;;;;;;5090396;28;20505;-70
2022/04/25 13:31:26;;;;;;;3.50;3.20;;;;;;;;;;5089888;28;20481;-71
2022/04/25 13:33:53;;;;;;;4.17;3.70;;;;;;;;;;5090580;28;20441;-69
2022/04/25 13:36:20;;;;;;;3.73;2.80;;;;;;;;;;5089757;28;20479;-71
2022/04/25 13:38:47;;;;;;;3.93;3.53;;;;;;;;;;5090560;28;20480;-68
2022/04/25 13:41:14;;;;;;;4.77;2.83;;;;;;;;;;5089950;28;20441;-71
2022/04/25 13:43:43;;;;;;;4.60;3.70;;;;;;;;;;5090612;28;20445;-69
2022/04/25 13:46:11;;;;;;;3.63;3.20;;;;;;;;;;5074165;28;20448;-69
2022/04/25 13:48:40;;;;;;;3.47;3.17;;;;;;;;;;5079604;28;20532;-69
2022/04/25 13:51:09;;;;;;;4.53;3.63;;;;;;;;;;5090643;28;20477;-71
2022/04/25 13:53:38;;;;;;;5.23;2.70;;;;;;;;;;5090830;28;20444;-71
2022/04/25 13:56:06;;;;;;;4.73;3.70;;;;;;;;;;5090840;28;20441;-71
2022/04/25 13:58:33;;;;;;;3.67;3.27;;;;;;;;;;5089925;28;20940;-71
2022/04/25 14:01:01;;;;;;;3.40;3.10;;;;;;;;;;5090571;28;20449;-70
2022/04/25 14:03:28;;;;;;;2.17;1.90;;;;;;;;;;5089873;28;20906;-70
2022/04/25 14:05:56;;;;;;;2.67;2.43;;;;;;;;;;5077110;28;20913;-69
2022/04/25 14:08:24;;;;;;;2.63;2.37;;;;;;;;;;5089688;28;20841;-69
2022/04/25 14:10:52;;;;;;;3.87;2.10;;;;;;;;;;5090857;28;20443;-70
2022/04/25 14:13:20;;;;;;;2.57;2.37;;;;;;;;;;5089987;28;20845;-69
2022/04/25 14:15:48;;;;;;;2.60;2.40;;;;;;;;;;5090906;28;20564;-69
2022/04/25 14:18:15;;;;;;;2.22;1.63;;;;;;;;;;5089202;28;20477;-70
2022/04/25 14:20:43;;;;;;;3.33;2.63;;;;;;;;;;5090965;28;20639;-69
2022/04/25 14:23:12;;;;;;;2.30;2.00;;;;;;;;;;5094383;28;20475;-70
2022/04/25 14:25:39;;;;;;;3.77;2.67;;;;;;;;;;5094403;28;20498;-69
2022/04/25 14:28:08;;;;;;;2.80;2.60;;;;;;;;;;5093580;28;20445;-70
2022/04/25 14:30:35;;;;;;;2.63;2.40;;;;;;;;;;5093548;28;20476;-69
2022/04/25 14:33:02;;;;;;;3.20;1.80;;;;;;;;;;5093838;28;20980;-69
2022/04/25 14:35:29;;;;;;;2.57;2.30;;;;;;;;;;5093227;28;20810;-69
2022/04/25 14:37:56;;;;;;;2.80;2.37;;;14.90;99.90;;;;;;5093498;28;20444;-70
2022/04/25 14:40:25;;;;;;;3.33;2.50;;;18.80;99.90;;;;;;5093217;28;20519;-69
2022/04/25 14:42:51;;;;;;;2.40;2.20;;;19.30;99.90;;;;;;5094001;28;20471;-69
2022/04/25 14:45:19;;;;;;;3.03;2.63;;;;;;;;;;5093220;28;20460;-70
2022/04/25 14:47:47;;;;;;;3.00;2.53;;;;;;;;;;5093528;28;20523;-69
2022/04/25 14:55:47;;;;;;;1.73;1.63;;;;;;;;;;5093369;28;20431;-70
2022/04/25 14:58:15;;;;;;;2.37;2.17;;;18.00;99.90;;;;;;5092867;28;20493;-70